createdAt,value
2023-10-13T00:00:01.214Z,14.92
2023-10-13T00:01:16.197Z,14.95
2023-10-13T00:02:23.263Z,15.02
2023-10-13T00:03:34.150Z,15.05
2023-10-13T00:04:37.450Z,15.06
2023-10-13T00:05:43.765Z,15.09
2023-10-13T00:06:49.599Z,15.09
2023-10-13T00:07:55.344Z,15.20
2023-10-13T00:08:57.811Z,15.24
2023-10-13T00:10:06.568Z,15.31
2023-10-13T00:11:17.508Z,15.38
2023-10-13T00:12:25.405Z,15.48
2023-10-13T00:13:30.168Z,15.47
2023-10-13T00:14:35.662Z,15.49
2023-10-13T00:15:46.602Z,15.47
2023-10-13T00:17:04.732Z,15.42
2023-10-13T00:18:14.157Z,15.38
2023-10-13T00:19:16.529Z,15.35
2023-10-13T00:20:32.322Z,15.32
2023-10-13T00:21:34.727Z,15.32
2023-10-13T00:22:43.101Z,15.29
2023-10-13T00:23:54.488Z,15.32
2023-10-13T00:25:05.317Z,15.27
2023-10-13T00:26:11.453Z,15.23
2023-10-13T00:27:31.534Z,15.16
2023-10-13T00:28:37.354Z,15.10
2023-10-13T00:29:45.298Z,15.06
2023-10-13T00:30:52.207Z,15.02
2023-10-13T00:32:28.697Z,15.02
2023-10-13T00:33:33.732Z,14.97
2023-10-13T00:34:39.482Z,14.96
2023-10-13T00:35:46.286Z,14.99
2023-10-13T00:37:12.924Z,14.96
2023-10-13T00:38:18.483Z,14.97
2023-10-13T00:39:24.845Z,14.96
2023-10-13T00:40:42.670Z,14.99
2023-10-13T00:42:00.048Z,14.97
2023-10-13T00:43:25.778Z,14.97
2023-10-13T00:44:30.554Z,14.96
2023-10-13T00:45:42.476Z,14.99
2023-10-13T00:46:47.354Z,15.06
2023-10-13T00:47:51.268Z,15.08
2023-10-13T00:48:57.416Z,15.25
2023-10-13T00:50:00.364Z,15.39
2023-10-13T00:51:04.677Z,15.38
2023-10-13T00:52:11.697Z,15.36
2023-10-13T00:53:14.138Z,15.42
2023-10-13T00:54:28.516Z,15.44
2023-10-13T00:55:35.312Z,15.51
2023-10-13T00:56:42.417Z,15.61
2023-10-13T00:57:48.407Z,15.64
2023-10-13T00:58:53.151Z,15.59
2023-10-13T01:00:00.956Z,15.61
2023-10-13T01:01:19.323Z,15.65
2023-10-13T01:02:39.713Z,15.66
2023-10-13T01:03:45.462Z,15.70
2023-10-13T01:04:48.595Z,15.65
2023-10-13T01:06:00.465Z,15.60
2023-10-13T01:07:06.249Z,15.57
2023-10-13T01:08:13.092Z,15.62
2023-10-13T01:09:17.934Z,15.57
2023-10-13T01:10:28.256Z,15.48
2023-10-13T01:11:33.522Z,15.39
2023-10-13T01:12:36.171Z,15.42
2023-10-13T01:13:39.127Z,15.49
2023-10-13T01:14:45.953Z,15.44
2023-10-13T01:15:48.497Z,15.47
2023-10-13T01:16:54.172Z,15.48
2023-10-13T01:18:07.449Z,15.42
2023-10-13T01:19:14.044Z,15.48
2023-10-13T01:20:23.270Z,15.43
2023-10-13T01:21:29.129Z,15.54
2023-10-13T01:22:34.722Z,15.55
2023-10-13T01:23:46.569Z,15.54
2023-10-13T01:24:50.445Z,15.54
2023-10-13T01:25:57.434Z,15.57
2023-10-13T01:27:08.824Z,15.72
2023-10-13T01:28:11.518Z,15.92
2023-10-13T01:29:29.972Z,15.92
2023-10-13T01:30:35.922Z,15.85
2023-10-13T01:31:39.066Z,15.84
2023-10-13T01:32:47.169Z,15.92
2023-10-13T01:33:55.963Z,15.93
2023-10-13T01:35:19.739Z,15.96
2023-10-13T01:36:23.615Z,15.89
2023-10-13T01:37:28.702Z,15.86
2023-10-13T01:38:34.986Z,15.85
2023-10-13T01:39:39.978Z,15.89
2023-10-13T01:40:53.020Z,15.97
2023-10-13T01:41:57.441Z,15.99
2023-10-13T01:43:00.091Z,15.97
2023-10-13T01:44:05.871Z,15.99
2023-10-13T01:45:09.121Z,16.04
2023-10-13T01:46:12.473Z,16.01
2023-10-13T01:47:36.377Z,16.09
2023-10-13T01:48:41.392Z,16.02
2023-10-13T01:49:45.202Z,15.93
2023-10-13T01:50:57.622Z,15.87
2023-10-13T01:52:04.794Z,15.97
2023-10-13T01:53:13.585Z,15.96
2023-10-13T01:54:19.494Z,15.91
2023-10-13T01:55:24.967Z,15.84
2023-10-13T01:56:31.625Z,15.85
2023-10-13T01:57:37.332Z,15.83
2023-10-13T01:58:44.523Z,15.84
2023-10-13T01:59:50.270Z,15.85
2023-10-13T02:00:58.204Z,15.86
2023-10-13T02:02:02.825Z,15.77
2023-10-13T02:03:06.486Z,15.68
2023-10-13T02:04:12.586Z,15.60
2023-10-13T02:05:17.796Z,15.77
2023-10-13T02:06:25.640Z,15.74
2023-10-13T02:07:31.547Z,15.66
2023-10-13T02:08:41.643Z,15.59
2023-10-13T02:09:44.715Z,15.55
2023-10-13T02:10:50.191Z,15.49
2023-10-13T02:11:56.268Z,15.42
2023-10-13T02:12:58.842Z,15.32
2023-10-13T02:14:02.038Z,15.27
2023-10-13T02:15:06.604Z,15.24
2023-10-13T02:16:13.547Z,15.16
2023-10-13T02:17:18.090Z,15.14
2023-10-13T02:18:22.667Z,15.02
2023-10-13T02:19:31.478Z,14.91
2023-10-13T02:20:43.718Z,14.81
2023-10-13T02:21:46.815Z,14.68
2023-10-13T02:22:53.313Z,14.60
2023-10-13T02:24:01.616Z,14.51
2023-10-13T02:25:07.652Z,14.40
2023-10-13T02:26:17.034Z,14.32
2023-10-13T02:27:19.492Z,14.24
2023-10-13T02:28:23.752Z,14.15
2023-10-13T02:29:30.576Z,14.07
2023-10-13T02:30:34.577Z,14.04
2023-10-13T02:31:37.877Z,13.96
2023-10-13T02:32:48.707Z,13.90
2023-10-13T02:33:51.057Z,13.83
2023-10-13T02:34:53.651Z,13.76
2023-10-13T02:35:58.629Z,13.69
2023-10-13T02:37:01.323Z,13.60
2023-10-13T02:38:12.108Z,13.56
2023-10-13T02:39:15.740Z,13.49
2023-10-13T02:40:24.930Z,13.42
2023-10-13T02:41:30.445Z,13.37
2023-10-13T02:42:33.212Z,13.31
2023-10-13T02:43:37.086Z,13.25
2023-10-13T02:44:46.243Z,13.18
2023-10-13T02:45:59.705Z,13.11
2023-10-13T02:47:02.187Z,13.06
2023-10-13T02:48:12.203Z,13.00
2023-10-13T02:49:21.464Z,12.93
2023-10-13T02:50:26.183Z,12.86
2023-10-13T02:51:33.464Z,12.80
2023-10-13T02:52:43.087Z,12.76
2023-10-13T02:53:50.025Z,12.73
2023-10-13T02:54:53.131Z,12.67
2023-10-13T02:55:57.448Z,12.63
2023-10-13T02:57:06.730Z,12.58
2023-10-13T02:58:10.412Z,12.51
2023-10-13T02:59:13.884Z,12.46
2023-10-13T03:00:24.658Z,12.41
2023-10-13T03:01:30.586Z,12.36
2023-10-13T03:02:33.850Z,12.31
2023-10-13T03:03:36.763Z,12.25
2023-10-13T03:04:42.142Z,12.22
2023-10-13T03:05:44.980Z,12.18
2023-10-13T03:06:49.179Z,12.15
2023-10-13T03:07:54.218Z,12.19
2023-10-13T03:08:58.533Z,12.17
2023-10-13T03:10:02.265Z,12.17
2023-10-13T03:11:06.856Z,12.15
2023-10-13T03:12:14.746Z,12.18
2023-10-13T03:13:17.456Z,12.15
2023-10-13T03:14:28.322Z,12.13
2023-10-13T03:15:37.484Z,12.17
2023-10-13T03:16:41.563Z,12.14
2023-10-13T03:17:45.627Z,12.14
2023-10-13T03:18:58.672Z,12.16
2023-10-13T03:20:02.380Z,12.18
2023-10-13T03:21:04.827Z,12.16
2023-10-13T03:22:17.632Z,12.17
2023-10-13T03:23:20.034Z,12.13
2023-10-13T03:24:34.981Z,12.11
2023-10-13T03:25:44.338Z,12.09
2023-10-13T03:26:53.800Z,12.05
2023-10-13T03:28:08.634Z,12.04
2023-10-13T03:29:22.264Z,12.01
2023-10-13T03:30:32.025Z,11.94
2023-10-13T03:31:38.964Z,11.91
2023-10-13T03:32:47.186Z,11.88
2023-10-13T03:33:50.509Z,11.87
2023-10-13T03:35:09.003Z,11.81
2023-10-13T03:36:11.313Z,11.79
2023-10-13T03:37:19.641Z,11.75
2023-10-13T03:38:29.006Z,11.72
2023-10-13T03:39:32.566Z,11.67
2023-10-13T03:40:37.983Z,11.63
2023-10-13T03:41:47.012Z,11.60
2023-10-13T03:43:01.923Z,11.56
2023-10-13T03:44:15.862Z,11.51
2023-10-13T03:45:20.343Z,11.46
2023-10-13T03:46:28.270Z,11.42
2023-10-13T03:47:34.189Z,11.38
2023-10-13T03:48:54.030Z,11.35
2023-10-13T03:50:17.445Z,11.32
2023-10-13T03:51:23.471Z,11.27
2023-10-13T03:52:28.590Z,11.25
2023-10-13T03:53:38.381Z,11.24
2023-10-13T03:54:42.300Z,11.22
2023-10-13T03:55:49.783Z,11.17
2023-10-13T03:56:54.648Z,11.15
2023-10-13T03:58:02.061Z,11.13
2023-10-13T03:59:11.192Z,11.11
2023-10-13T04:00:25.293Z,11.12
2023-10-13T04:01:47.257Z,11.13
2023-10-13T04:03:05.256Z,11.09
2023-10-13T04:04:14.004Z,11.07
2023-10-13T04:05:37.419Z,11.10
2023-10-13T04:06:53.380Z,11.09
2023-10-13T04:08:16.454Z,11.11
2023-10-13T04:09:35.133Z,11.11
2023-10-13T04:11:02.971Z,11.07
2023-10-13T04:12:22.216Z,11.07
2023-10-13T04:13:54.547Z,11.03
2023-10-13T04:15:20.386Z,11.00
2023-10-13T04:16:52.245Z,10.96
2023-10-13T04:17:55.022Z,10.95
2023-10-13T04:19:09.806Z,10.92
2023-10-13T04:20:15.733Z,10.91
2023-10-13T04:21:38.314Z,10.87
2023-10-13T04:22:57.777Z,10.84
2023-10-13T04:24:27.111Z,10.81
2023-10-13T04:25:37.104Z,10.75
2023-10-13T04:27:00.103Z,10.71
2023-10-13T04:28:18.046Z,10.68
2023-10-13T04:29:47.500Z,10.67
2023-10-13T04:31:01.486Z,10.63
2023-10-13T04:32:15.081Z,10.60
2023-10-13T04:33:37.762Z,10.57
2023-10-13T04:34:41.296Z,10.53
2023-10-13T04:35:49.487Z,10.52
2023-10-13T04:36:58.854Z,10.53
2023-10-13T04:38:02.977Z,10.53
2023-10-13T04:39:11.360Z,10.52
2023-10-13T04:40:14.102Z,10.53
2023-10-13T04:41:24.223Z,10.52
2023-10-13T04:42:41.308Z,10.51
2023-10-13T04:43:57.348Z,10.51
2023-10-13T04:45:17.518Z,10.47
2023-10-13T04:46:37.437Z,10.47
2023-10-13T04:47:58.534Z,10.45
2023-10-13T04:49:12.121Z,10.44
2023-10-13T04:50:24.293Z,10.49
2023-10-13T04:51:51.317Z,10.53
2023-10-13T04:53:14.960Z,10.54
2023-10-13T04:54:27.611Z,10.54
2023-10-13T04:55:50.228Z,10.57
2023-10-13T04:57:17.817Z,10.64
2023-10-13T04:58:47.506Z,10.62
2023-10-13T05:00:33.494Z,10.59
2023-10-13T05:02:13.548Z,10.60
2023-10-13T05:03:42.451Z,10.58
2023-10-13T05:04:59.891Z,10.58
2023-10-13T05:06:17.334Z,10.56
2023-10-13T05:07:34.684Z,10.55
2023-10-13T05:08:52.291Z,10.53
2023-10-13T05:10:09.798Z,10.52
2023-10-13T05:11:27.028Z,10.51
2023-10-13T05:14:15.133Z,10.45
2023-10-13T05:15:32.711Z,10.45
2023-10-13T05:17:04.914Z,10.42
2023-10-13T05:18:22.534Z,10.39
2023-10-13T05:19:40.144Z,10.36
2023-10-13T05:20:57.426Z,10.35
2023-10-13T05:22:14.934Z,10.31
2023-10-13T05:23:32.336Z,10.28
2023-10-13T05:24:49.714Z,10.27
2023-10-13T05:26:06.980Z,10.25
2023-10-13T05:27:24.597Z,10.23
2023-10-13T05:28:41.985Z,10.22
2023-10-13T05:30:11.561Z,10.21
2023-10-13T05:31:29.017Z,10.22
2023-10-13T05:32:49.387Z,10.25
2023-10-13T05:34:06.752Z,10.29
2023-10-13T05:35:24.334Z,10.34
2023-10-13T05:36:41.625Z,10.37
2023-10-13T05:37:59.045Z,10.40
2023-10-13T05:39:16.550Z,10.45
2023-10-13T05:40:34.134Z,10.52
2023-10-13T05:41:51.484Z,10.58
2023-10-13T05:43:09.044Z,10.61
2023-10-13T05:44:26.636Z,10.65
2023-10-13T05:46:04.125Z,10.67
2023-10-13T05:47:23.189Z,10.70
2023-10-13T05:48:44.034Z,10.74
2023-10-13T05:49:54.941Z,10.75
2023-10-13T05:51:16.725Z,10.78
2023-10-13T05:52:47.713Z,10.81
2023-10-13T05:54:05.423Z,10.86
2023-10-13T05:55:23.199Z,10.90
2023-10-13T05:56:40.646Z,10.95
2023-10-13T05:57:58.391Z,11.05
2023-10-13T05:59:16.076Z,11.12
2023-10-13T06:00:33.809Z,11.17
2023-10-13T06:01:51.493Z,11.24
2023-10-13T06:03:09.069Z,11.28
2023-10-13T06:04:29.554Z,11.33
2023-10-13T06:05:47.591Z,11.38
2023-10-13T06:07:05.146Z,11.42
2023-10-13T06:08:22.867Z,11.47
2023-10-13T06:09:40.517Z,11.51
2023-10-13T06:10:58.654Z,11.57
2023-10-13T06:12:16.047Z,11.62
2023-10-13T06:13:33.512Z,11.69
2023-10-13T06:14:50.912Z,11.74
2023-10-13T06:16:08.509Z,11.79
2023-10-13T06:17:26.028Z,11.86
2023-10-13T06:18:43.633Z,11.92
2023-10-13T06:20:03.778Z,11.98
2023-10-13T06:21:21.471Z,12.06
2023-10-13T06:22:38.876Z,12.13
2023-10-13T06:23:56.574Z,12.23
2023-10-13T06:25:16.205Z,12.30
2023-10-13T06:26:33.670Z,12.40
2023-10-13T06:27:57.235Z,12.46
2023-10-13T06:29:02.754Z,12.55
2023-10-13T06:30:06.377Z,12.60
2023-10-13T06:31:15.997Z,12.67
2023-10-13T06:32:18.786Z,12.73
2023-10-13T06:33:30.512Z,12.79
2023-10-13T06:34:39.628Z,12.85
2023-10-13T06:35:58.131Z,12.93
2023-10-13T06:37:00.807Z,12.98
2023-10-13T06:38:11.528Z,13.03
2023-10-13T06:39:36.398Z,13.08
2023-10-13T06:40:41.183Z,13.14
2023-10-13T06:41:46.379Z,13.19
2023-10-13T06:42:50.536Z,13.24
2023-10-13T06:44:06.738Z,13.28
2023-10-13T06:45:09.955Z,13.33
2023-10-13T06:46:16.461Z,13.37
2023-10-13T06:47:22.365Z,13.41
2023-10-13T06:48:28.930Z,13.46
2023-10-13T06:49:42.718Z,13.51
2023-10-13T06:50:57.285Z,13.58
2023-10-13T06:52:04.377Z,13.64
2023-10-13T06:53:09.825Z,13.70
2023-10-13T06:54:20.810Z,13.76
2023-10-13T06:55:29.355Z,13.84
2023-10-13T06:56:34.963Z,13.91
2023-10-13T06:57:44.736Z,13.99
2023-10-13T06:59:01.684Z,14.08
2023-10-13T07:00:10.522Z,14.17
2023-10-13T07:01:16.578Z,14.26
2023-10-13T07:02:28.788Z,14.35
2023-10-13T07:03:32.841Z,14.41
2023-10-13T07:04:46.186Z,14.47
2023-10-13T07:05:49.173Z,14.53
2023-10-13T07:06:57.897Z,14.61
2023-10-13T07:08:03.216Z,14.66
2023-10-13T07:09:29.750Z,14.72
2023-10-13T07:10:32.390Z,14.77
2023-10-13T07:11:41.850Z,14.84
2023-10-13T07:12:45.260Z,14.90
2023-10-13T07:13:53.417Z,14.98
2023-10-13T07:15:01.442Z,15.04
2023-10-13T07:17:29.349Z,15.20
2023-10-13T07:18:37.783Z,15.27
2023-10-13T07:19:54.510Z,15.35
2023-10-13T07:20:59.646Z,15.44
2023-10-13T07:22:20.843Z,15.52
2023-10-13T07:23:28.452Z,15.59
2023-10-13T07:24:37.008Z,15.66
2023-10-13T07:25:42.255Z,15.73
2023-10-13T07:26:48.311Z,15.82
2023-10-13T07:27:51.090Z,15.92
2023-10-13T07:28:53.785Z,16.02
2023-10-13T07:30:15.013Z,16.09
2023-10-13T07:31:17.813Z,16.21
2023-10-13T07:32:26.065Z,16.29
2023-10-13T07:33:28.679Z,16.34
2023-10-13T07:34:37.442Z,16.44
2023-10-13T07:35:40.275Z,16.51
2023-10-13T07:36:45.841Z,16.55
2023-10-13T07:37:54.110Z,16.58
2023-10-13T07:39:23.569Z,16.67
2023-10-13T07:40:41.376Z,16.79
2023-10-13T07:41:53.273Z,16.89
2023-10-13T07:43:02.270Z,16.98
2023-10-13T07:44:08.855Z,17.11
2023-10-13T07:45:14.555Z,17.20
2023-10-13T07:46:27.114Z,17.29
2023-10-13T07:47:34.751Z,17.39
2023-10-13T07:48:38.710Z,17.52
2023-10-13T07:49:44.094Z,17.55
2023-10-13T07:50:47.178Z,17.66
2023-10-13T07:51:58.632Z,17.77
2023-10-13T07:53:20.642Z,17.90
2023-10-13T07:54:26.661Z,18.30
2023-10-13T07:55:32.348Z,18.64
2023-10-13T07:56:40.790Z,19.10
2023-10-13T07:57:56.293Z,19.11
2023-10-13T07:59:08.853Z,19.14
2023-10-13T08:00:13.856Z,19.49
2023-10-13T08:01:22.937Z,19.63
2023-10-13T08:02:40.746Z,19.97
2023-10-13T08:03:46.668Z,20.34
2023-10-13T08:05:01.057Z,20.57
2023-10-13T08:06:22.125Z,21.04
2023-10-13T08:07:29.886Z,21.00
2023-10-13T08:08:43.892Z,20.76
2023-10-13T08:09:53.169Z,21.09
2023-10-13T08:11:02.550Z,21.62
2023-10-13T08:12:23.444Z,21.99
2023-10-13T08:13:29.740Z,21.80
2023-10-13T08:14:39.958Z,21.91
2023-10-13T08:15:48.781Z,21.83
2023-10-13T08:17:02.856Z,21.95
2023-10-13T08:18:11.018Z,22.10
2023-10-13T08:19:19.292Z,21.70
2023-10-13T08:20:24.041Z,21.86
2023-10-13T08:21:35.770Z,22.41
2023-10-13T08:22:40.084Z,22.04
2023-10-13T08:24:10.982Z,22.02
2023-10-13T08:25:26.127Z,21.85
2023-10-13T08:26:54.409Z,21.82
2023-10-13T08:28:23.684Z,22.27
2023-10-13T08:29:41.087Z,22.38
2023-10-13T08:30:58.489Z,22.75
2023-10-13T08:32:16.808Z,23.03
2023-10-13T08:33:26.533Z,23.57
2023-10-13T08:34:31.603Z,23.10
2023-10-13T08:35:36.849Z,22.89
2023-10-13T08:36:42.760Z,23.17
2023-10-13T08:37:52.022Z,22.90
2023-10-13T08:39:17.304Z,22.72
2023-10-13T08:40:44.116Z,23.12
2023-10-13T08:42:00.697Z,23.31
2023-10-13T08:43:13.601Z,23.98
2023-10-13T08:44:45.162Z,23.12
2023-10-13T08:46:09.774Z,23.59
2023-10-13T08:47:20.554Z,23.79
2023-10-13T08:48:32.865Z,23.51
2023-10-13T08:49:54.557Z,23.55
2023-10-13T08:50:57.391Z,23.31
2023-10-13T08:52:29.924Z,23.84
2023-10-13T08:53:53.560Z,23.76
2023-10-13T08:55:37.416Z,22.89
2023-10-13T08:56:48.664Z,24.54
2023-10-13T08:57:55.223Z,24.17
2023-10-13T08:59:11.362Z,23.50
2023-10-13T09:00:53.151Z,23.22
2023-10-13T09:02:01.279Z,23.85
2023-10-13T09:04:47.336Z,24.68
2023-10-13T09:06:03.245Z,24.41
2023-10-13T09:07:16.998Z,24.33
2023-10-13T09:08:36.786Z,24.04
2023-10-13T09:10:06.343Z,24.13
2023-10-13T09:11:15.687Z,23.93
2023-10-13T09:12:27.295Z,23.68
2023-10-13T09:13:45.627Z,24.21
2023-10-13T09:15:06.637Z,24.38
2023-10-13T09:16:18.951Z,24.82
2023-10-13T09:17:35.888Z,24.62
2023-10-13T09:18:48.005Z,24.93
2023-10-13T09:19:57.358Z,24.38
2023-10-13T09:21:23.057Z,24.77
2023-10-13T09:22:29.628Z,24.38
2023-10-13T09:23:47.196Z,24.40
2023-10-13T09:24:52.868Z,24.41
2023-10-13T09:25:59.713Z,24.51
2023-10-13T09:27:06.546Z,25.05
2023-10-13T09:28:20.302Z,24.98
2023-10-13T09:29:23.684Z,25.00
2023-10-13T09:30:26.374Z,24.81
2023-10-13T09:31:33.798Z,25.23
2023-10-13T09:32:47.312Z,25.24
2023-10-13T09:33:51.891Z,25.20
2023-10-13T09:34:55.557Z,25.29
2023-10-13T09:36:01.311Z,25.83
2023-10-13T09:37:05.475Z,25.65
2023-10-13T09:38:08.163Z,25.44
2023-10-13T09:39:31.387Z,25.31
2023-10-13T09:40:39.873Z,25.76
2023-10-13T09:41:42.663Z,25.02
2023-10-13T09:42:49.496Z,24.81
2023-10-13T09:43:59.663Z,24.71
2023-10-13T09:45:06.098Z,24.62
2023-10-13T09:46:17.176Z,24.33
2023-10-13T09:47:32.423Z,24.61
2023-10-13T09:48:37.295Z,24.71
2023-10-13T09:49:50.578Z,24.79
2023-10-13T09:51:04.358Z,25.03
2023-10-13T09:52:11.691Z,24.94
2023-10-13T09:53:15.823Z,25.44
2023-10-13T09:54:35.047Z,25.29
2023-10-13T09:55:47.504Z,25.52
2023-10-13T09:56:53.908Z,26.17
2023-10-13T09:58:12.173Z,26.40
2023-10-13T09:59:20.635Z,26.97
2023-10-13T10:00:46.159Z,27.02
2023-10-13T10:01:59.299Z,25.92
2023-10-13T10:03:16.646Z,26.02
2023-10-13T10:04:21.942Z,25.81
2023-10-13T10:05:26.760Z,25.85
2023-10-13T10:06:40.590Z,26.01
2023-10-13T10:07:45.576Z,26.14
2023-10-13T10:08:52.257Z,25.74
2023-10-13T10:09:58.527Z,26.20
2023-10-13T10:11:32.708Z,25.84
2023-10-13T10:12:44.811Z,25.98
2023-10-13T10:13:59.185Z,26.04
2023-10-13T10:15:15.891Z,26.20
2023-10-13T10:16:24.346Z,26.86
2023-10-13T10:17:31.262Z,26.88
2023-10-13T10:18:37.058Z,27.68
2023-10-13T10:19:50.001Z,27.55
2023-10-13T10:20:57.275Z,26.70
2023-10-13T10:22:28.890Z,26.79
2023-10-13T10:23:37.800Z,27.13
2023-10-13T10:24:40.370Z,26.67
2023-10-13T10:25:47.770Z,27.15
2023-10-13T10:26:53.517Z,27.55
2023-10-13T10:28:00.857Z,27.51
2023-10-13T10:29:16.950Z,28.16
2023-10-13T10:30:26.268Z,28.17
2023-10-13T10:31:36.725Z,27.98
2023-10-13T10:32:42.109Z,27.84
2023-10-13T10:33:51.532Z,27.87
2023-10-13T10:35:09.067Z,27.96
2023-10-13T10:36:16.278Z,28.13
2023-10-13T10:37:20.322Z,27.62
2023-10-13T10:38:34.473Z,27.32
2023-10-13T10:39:46.496Z,27.57
2023-10-13T10:41:02.439Z,27.51
2023-10-13T10:42:16.821Z,26.88
2023-10-13T10:43:32.462Z,27.19
2023-10-13T10:44:44.581Z,26.87
2023-10-13T10:46:00.952Z,27.11
2023-10-13T10:47:21.392Z,27.57
2023-10-13T10:48:33.036Z,27.92
2023-10-13T10:49:39.303Z,28.12
2023-10-13T10:50:45.484Z,27.88
2023-10-13T10:51:48.414Z,28.34
2023-10-13T10:52:58.944Z,27.70
2023-10-13T10:54:12.752Z,27.95
2023-10-13T10:55:21.471Z,28.46
2023-10-13T10:56:26.682Z,28.63
2023-10-13T10:57:38.637Z,27.91
2023-10-13T10:58:45.957Z,28.00
2023-10-13T11:00:11.218Z,28.04
2023-10-13T11:01:20.141Z,27.63
2023-10-13T11:02:34.819Z,28.16
2023-10-13T11:03:39.476Z,28.12
2023-10-13T11:04:52.608Z,28.24
2023-10-13T11:05:55.274Z,29.14
2023-10-13T11:07:01.578Z,29.47
2023-10-13T11:08:33.677Z,28.57
2023-10-13T11:09:47.536Z,29.27
2023-10-13T11:10:50.058Z,29.53
2023-10-13T11:11:54.400Z,29.77
2023-10-13T11:13:13.058Z,28.79
2023-10-13T11:14:24.700Z,28.92
2023-10-13T11:15:35.212Z,29.01
2023-10-13T11:16:39.421Z,28.84
2023-10-13T11:17:52.594Z,29.08
2023-10-13T11:19:02.812Z,29.04
2023-10-13T11:20:17.812Z,29.65
2023-10-13T11:21:21.501Z,29.40
2023-10-13T11:22:43.678Z,28.55
2023-10-13T11:23:57.266Z,28.58
2023-10-13T11:25:10.975Z,29.10
2023-10-13T11:26:13.677Z,29.09
2023-10-13T11:27:40.591Z,28.75
2023-10-13T11:28:51.760Z,28.80
2023-10-13T11:30:06.699Z,28.47
2023-10-13T11:31:12.584Z,28.47
2023-10-13T11:32:21.511Z,28.78
2023-10-13T11:33:25.392Z,29.01
2023-10-13T11:34:41.540Z,28.56
2023-10-13T11:35:59.060Z,28.60
2023-10-13T11:37:24.577Z,28.33
2023-10-13T11:38:28.985Z,28.13
2023-10-13T11:39:43.547Z,28.20
2023-10-13T11:41:01.194Z,27.69
2023-10-13T11:42:12.342Z,27.52
2023-10-13T11:43:15.778Z,26.51
2023-10-13T11:44:25.759Z,26.49
2023-10-13T11:45:33.015Z,26.17
2023-10-13T11:46:55.528Z,26.03
2023-10-13T11:48:02.624Z,26.23
2023-10-13T11:49:07.564Z,26.54
2023-10-13T11:50:13.337Z,27.00
2023-10-13T11:51:18.904Z,26.89
2023-10-13T11:52:28.079Z,27.43
2023-10-13T11:53:31.147Z,27.40
2023-10-13T11:54:36.841Z,27.20
2023-10-13T11:55:42.395Z,27.15
2023-10-13T11:56:46.299Z,27.21
2023-10-13T11:57:52.398Z,27.30
2023-10-13T11:58:54.862Z,27.43
2023-10-13T12:00:22.963Z,27.41
2023-10-13T12:01:45.504Z,27.89
2023-10-13T12:03:08.621Z,27.89
2023-10-13T12:04:26.482Z,28.02
2023-10-13T12:05:50.556Z,27.22
2023-10-13T12:07:04.546Z,27.28
2023-10-13T12:08:23.661Z,27.11
2023-10-13T12:09:43.654Z,27.06
2023-10-13T12:11:01.705Z,26.76
2023-10-13T12:12:06.020Z,27.06
2023-10-13T12:13:12.211Z,26.98
2023-10-13T12:14:18.457Z,27.15
2023-10-13T12:16:45.144Z,27.29
2023-10-13T12:17:57.159Z,27.54
2023-10-13T12:19:09.872Z,27.87
2023-10-13T12:20:21.748Z,28.22
2023-10-13T12:21:42.934Z,28.29
2023-10-13T12:22:58.903Z,28.37
2023-10-13T12:24:06.425Z,28.15
2023-10-13T12:25:26.428Z,28.61
2023-10-13T12:26:43.539Z,27.86
2023-10-13T12:27:53.265Z,28.23
2023-10-13T12:29:18.817Z,28.76
2023-10-13T12:30:38.433Z,28.94
2023-10-13T12:31:52.613Z,28.70
2023-10-13T12:33:12.228Z,29.10
2023-10-13T12:35:07.872Z,29.15
2023-10-13T12:36:13.060Z,30.17
2023-10-13T12:37:48.432Z,29.91
2023-10-13T12:39:28.369Z,29.72
2023-10-13T12:40:44.604Z,30.73
2023-10-13T12:42:03.507Z,30.96
2023-10-13T12:43:26.980Z,30.31
2023-10-13T12:44:50.782Z,30.67
2023-10-13T12:46:10.465Z,30.00
2023-10-13T12:47:30.242Z,29.59
2023-10-13T12:49:08.973Z,30.00
2023-10-13T12:50:38.104Z,29.81
2023-10-13T12:51:59.173Z,29.97
2023-10-13T12:53:05.705Z,30.18
2023-10-13T12:54:24.563Z,30.44
2023-10-13T12:55:31.541Z,30.47
2023-10-13T12:56:43.607Z,30.08
2023-10-13T12:57:50.262Z,30.04
2023-10-13T12:59:01.264Z,29.84
2023-10-13T13:00:18.434Z,29.44
2023-10-13T13:01:30.554Z,30.68
2023-10-13T13:02:36.426Z,31.38
2023-10-13T13:03:58.091Z,31.38
2023-10-13T13:05:08.004Z,31.98
2023-10-13T13:06:36.771Z,31.99
2023-10-13T13:07:45.900Z,31.16
2023-10-13T13:08:52.727Z,31.50
2023-10-13T13:09:57.784Z,31.71
2023-10-13T13:11:03.704Z,30.88
2023-10-13T13:12:08.152Z,30.59
2023-10-13T13:13:27.735Z,29.82
2023-10-13T13:14:37.128Z,29.90
2023-10-13T13:15:50.983Z,30.42
2023-10-13T13:16:55.327Z,31.21
2023-10-13T13:18:11.802Z,31.67
2023-10-13T13:19:30.423Z,31.98
2023-10-13T13:20:45.114Z,31.41
2023-10-13T13:21:49.642Z,31.76
2023-10-13T13:22:55.447Z,30.49
2023-10-13T13:23:59.154Z,30.92
2023-10-13T13:25:14.734Z,31.74
2023-10-13T13:26:20.245Z,32.22
2023-10-13T13:27:34.405Z,32.97
2023-10-13T13:28:43.922Z,32.81
2023-10-13T13:29:49.920Z,33.83
2023-10-13T13:30:56.211Z,34.28
2023-10-13T13:32:07.848Z,34.25
2023-10-13T13:33:17.327Z,34.13
2023-10-13T13:34:26.021Z,32.78
2023-10-13T13:35:43.331Z,33.69
2023-10-13T13:36:56.913Z,32.46
2023-10-13T13:38:29.777Z,33.11
2023-10-13T13:39:37.035Z,32.68
2023-10-13T13:40:44.853Z,32.51
2023-10-13T13:41:53.793Z,32.67
2023-10-13T13:43:06.872Z,32.13
2023-10-13T13:44:20.423Z,33.14
2023-10-13T13:45:36.620Z,32.63
2023-10-13T13:46:46.536Z,33.40
2023-10-13T13:47:57.997Z,33.37
2023-10-13T13:49:09.311Z,33.28
2023-10-13T13:50:23.151Z,32.15
2023-10-13T13:51:36.601Z,32.88
2023-10-13T13:53:35.786Z,33.71
2023-10-13T13:54:20.099Z,33.13
2023-10-13T13:55:23.756Z,33.00
2023-10-13T13:56:40.335Z,32.23
2023-10-13T13:57:47.935Z,32.27
2023-10-13T13:59:15.059Z,32.20
2023-10-13T14:00:27.371Z,32.00
2023-10-13T14:01:43.624Z,31.76
2023-10-13T14:04:34.769Z,33.40
2023-10-13T14:06:19.876Z,34.34
2023-10-13T14:07:30.255Z,34.77
2023-10-13T14:08:40.822Z,33.83
2023-10-13T14:10:07.561Z,34.16
2023-10-13T14:11:42.176Z,34.58
2023-10-13T14:12:52.082Z,35.44
2023-10-13T14:14:42.020Z,34.93
2023-10-13T14:15:48.919Z,34.37
2023-10-13T14:17:04.958Z,35.17
2023-10-13T14:18:18.191Z,34.99
2023-10-13T14:19:39.149Z,33.12
2023-10-13T14:21:19.380Z,34.35
2023-10-13T14:22:28.859Z,33.43
2023-10-13T14:23:43.644Z,33.56
2023-10-13T14:25:27.346Z,31.95
2023-10-13T14:27:00.875Z,32.19
2023-10-13T14:28:06.291Z,31.73
2023-10-13T14:29:18.039Z,31.18
2023-10-13T14:30:34.012Z,32.01
2023-10-13T14:31:43.449Z,32.49
2023-10-13T14:32:51.574Z,32.36
2023-10-13T14:33:56.266Z,32.02
2023-10-13T14:35:12.895Z,31.40
2023-10-13T14:36:24.308Z,31.09
2023-10-13T14:37:33.776Z,32.78
2023-10-13T14:38:47.227Z,33.55
2023-10-13T14:39:58.970Z,33.69
2023-10-13T14:41:28.255Z,32.10
2023-10-13T14:42:52.529Z,31.21
2023-10-13T14:44:08.633Z,31.85
2023-10-13T14:45:19.029Z,31.89
2023-10-13T14:46:27.660Z,30.98
2023-10-13T14:47:35.575Z,31.48
2023-10-13T14:48:41.944Z,31.27
2023-10-13T14:50:05.815Z,31.18
2023-10-13T14:51:15.830Z,32.40
2023-10-13T14:52:24.847Z,31.86
2023-10-13T14:53:37.639Z,31.82
2023-10-13T14:54:58.416Z,31.99
2023-10-13T14:56:08.625Z,31.25
2023-10-13T14:57:11.631Z,32.00
2023-10-13T14:58:19.547Z,32.09
2023-10-13T14:59:24.557Z,30.99
2023-10-13T15:00:37.153Z,32.17
2023-10-13T15:01:59.161Z,32.06
2023-10-13T15:03:29.347Z,32.14
2023-10-13T15:04:42.024Z,32.18
2023-10-13T15:06:17.209Z,32.68
2023-10-13T15:07:22.108Z,33.71
2023-10-13T15:08:56.926Z,31.66
2023-10-13T15:10:09.046Z,31.72
2023-10-13T15:11:21.690Z,32.36
2023-10-13T15:12:32.812Z,32.17
2023-10-13T15:13:38.942Z,33.04
2023-10-13T15:14:45.105Z,31.78
2023-10-13T15:15:49.901Z,32.58
2023-10-13T15:16:54.782Z,31.79
2023-10-13T15:17:59.616Z,31.52
2023-10-13T15:19:04.356Z,31.29
2023-10-13T15:20:11.885Z,30.83
2023-10-13T15:21:20.515Z,30.84
2023-10-13T15:22:29.396Z,30.89
2023-10-13T15:23:34.758Z,31.09
2023-10-13T15:24:46.690Z,30.74
2023-10-13T15:25:50.759Z,30.72
2023-10-13T15:27:03.445Z,30.21
2023-10-13T15:28:11.033Z,30.25
2023-10-13T15:29:17.679Z,29.05
2023-10-13T15:30:25.486Z,28.94
2023-10-13T15:31:38.929Z,28.41
2023-10-13T15:32:44.483Z,27.59
2023-10-13T15:33:53.489Z,27.60
2023-10-13T15:34:58.995Z,26.90
2023-10-13T15:36:01.355Z,26.96